KLSE/LSE METAR and TAF weather

Enter ICAO airport designator
Station Type Date Time Source
KLSE METAR 2018/12/17 01:53 UTC NOAA

KLSE 170153Z 28005KT 10SM CLR 02/M04 A3014 RMK AO2 SLP217 T00221044


Station Type Date Time Source
KLSE Decoded METAR 2018/12/17 01:53 UTC NOAA

LA CROSSE MUNICIPAL AIRPORT , WI, United States (KLSE) 43-53N 091-15W 200M
Dec 16, 2018 - 08:53 PM EST / 2018.12.17 0153 UTC
Wind: from the W (280 degrees) at 6 MPH (5 KT):0
Visibility: 10 mile(s):0
Sky conditions: clear
Temperature: 36.0 F (2.2 C)
Dew Point: 24.1 F (-4.4 C)
Relative Humidity: 61%
Pressure (altimeter): 30.14 in. Hg (1020 hPa)
ob: KLSE 170153Z 28005KT 10SM CLR 02/M04 A3014 RMK AO2 SLP217 T00221044
cycle: 2

Station Type Date Time Source
KLSE TAF 2018/12/16 18:28 UTC NOAA

TAF KLSE 161726Z 1618/1718 29006KT P6SM FEW250
FM170000 30005KT P6SM FEW250 WS014/30035KT
FM170600 31006KT P6SM FEW250


Example: see airport list